sensor_id;sensor_type;location;lat;lon;timestamp;temperature;humidity
19252;DHT22;9760;50.944;5.304;2024-03-25T00:00:39;4.00;99.90
19252;DHT22;9760;50.944;5.304;2024-03-25T00:03:05;4.10;99.90
19252;DHT22;9760;50.944;5.304;2024-03-25T00:05:31;4.10;99.90
19252;DHT22;9760;50.944;5.304;2024-03-25T00:07:58;4.10;99.90
19252;DHT22;9760;50.944;5.304;2024-03-25T00:10:24;4.10;99.90
19252;DHT22;9760;50.944;5.304;2024-03-25T00:12:49;4.10;99.90
19252;DHT22;9760;50.944;5.304;2024-03-25T00:15:20;4.00;99.90
19252;DHT22;9760;50.944;5.304;2024-03-25T00:17:46;4.00;99.90
19252;DHT22;9760;50.944;5.304;2024-03-25T00:20:13;4.00;99.90
19252;DHT22;9760;50.944;5.304;2024-03-25T00:22:39;4.00;99.90
19252;DHT22;9760;50.944;5.304;2024-03-25T00:25:05;4.00;99.90
19252;DHT22;9760;50.944;5.304;2024-03-25T00:27:30;4.00;99.90
19252;DHT22;9760;50.944;5.304;2024-03-25T00:29:56;4.10;99.90
19252;DHT22;9760;50.944;5.304;2024-03-25T00:32:22;4.20;99.90
19252;DHT22;9760;50.944;5.304;2024-03-25T00:34:47;4.10;99.90
19252;DHT22;9760;50.944;5.304;2024-03-25T00:37:13;4.10;99.90
19252;DHT22;9760;50.944;5.304;2024-03-25T00:39:39;4.10;99.90
19252;DHT22;9760;50.944;5.304;2024-03-25T00:42:05;4.10;99.90
19252;DHT22;9760;50.944;5.304;2024-03-25T00:44:31;4.10;99.90
19252;DHT22;9760;50.944;5.304;2024-03-25T00:46:56;4.00;99.90
19252;DHT22;9760;50.944;5.304;2024-03-25T00:49:22;4.20;99.90
19252;DHT22;9760;50.944;5.304;2024-03-25T00:51:47;4.00;99.90
19252;DHT22;9760;50.944;5.304;2024-03-25T00:54:13;4.00;99.90
19252;DHT22;9760;50.944;5.304;2024-03-25T00:56:39;4.00;99.90
19252;DHT22;9760;50.944;5.304;2024-03-25T00:59:04;4.00;99.90
19252;DHT22;9760;50.944;5.304;2024-03-25T01:01:32;3.90;99.90
19252;DHT22;9760;50.944;5.304;2024-03-25T01:03:58;3.90;99.90
19252;DHT22;9760;50.944;5.304;2024-03-25T01:06:24;3.90;99.90
19252;DHT22;9760;50.944;5.304;2024-03-25T01:08:50;3.80;99.90
19252;DHT22;9760;50.944;5.304;2024-03-25T01:11:17;3.80;99.90
19252;DHT22;9760;50.944;5.304;2024-03-25T01:13:42;3.80;99.90
19252;DHT22;9760;50.944;5.304;2024-03-25T01:16:09;3.80;99.90
19252;DHT22;9760;50.944;5.304;2024-03-25T01:18:35;3.80;99.90
19252;DHT22;9760;50.944;5.304;2024-03-25T01:21:01;3.80;99.90
19252;DHT22;9760;50.944;5.304;2024-03-25T01:23:26;3.80;99.90
19252;DHT22;9760;50.944;5.304;2024-03-25T01:25:52;3.70;99.90
19252;DHT22;9760;50.944;5.304;2024-03-25T01:28:18;3.80;99.90
19252;DHT22;9760;50.944;5.304;2024-03-25T01:30:43;3.80;99.90
19252;DHT22;9760;50.944;5.304;2024-03-25T01:33:09;3.80;99.90
19252;DHT22;9760;50.944;5.304;2024-03-25T01:35:35;3.80;99.90
19252;DHT22;9760;50.944;5.304;2024-03-25T01:38:01;3.70;99.90
19252;DHT22;9760;50.944;5.304;2024-03-25T01:40:26;3.70;99.90
19252;DHT22;9760;50.944;5.304;2024-03-25T01:42:59;3.60;99.90
19252;DHT22;9760;50.944;5.304;2024-03-25T01:45:29;3.60;99.90
19252;DHT22;9760;50.944;5.304;2024-03-25T01:47:59;3.50;99.90
19252;DHT22;9760;50.944;5.304;2024-03-25T01:50:26;3.50;99.90
19252;DHT22;9760;50.944;5.304;2024-03-25T01:52:52;3.50;99.90
19252;DHT22;9760;50.944;5.304;2024-03-25T01:55:22;3.50;99.90
19252;DHT22;9760;50.944;5.304;2024-03-25T01:57:50;3.40;99.90
19252;DHT22;9760;50.944;5.304;2024-03-25T02:00:17;3.50;99.90
19252;DHT22;9760;50.944;5.304;2024-03-25T02:02:43;3.50;99.90
19252;DHT22;9760;50.944;5.304;2024-03-25T02:05:16;3.50;99.90
19252;DHT22;9760;50.944;5.304;2024-03-25T02:07:43;3.40;99.90
19252;DHT22;9760;50.944;5.304;2024-03-25T02:10:09;3.50;99.90
19252;DHT22;9760;50.944;5.304;2024-03-25T02:12:38;3.50;99.90
19252;DHT22;9760;50.944;5.304;2024-03-25T02:15:05;3.40;99.90
19252;DHT22;9760;50.944;5.304;2024-03-25T02:17:31;3.40;99.90
19252;DHT22;9760;50.944;5.304;2024-03-25T02:19:57;3.40;99.90
19252;DHT22;9760;50.944;5.304;2024-03-25T02:22:22;3.40;99.90
19252;DHT22;9760;50.944;5.304;2024-03-25T02:24:52;3.40;99.90
19252;DHT22;9760;50.944;5.304;2024-03-25T02:27:18;3.50;99.90
19252;DHT22;9760;50.944;5.304;2024-03-25T02:29:44;3.60;99.90
19252;DHT22;9760;50.944;5.304;2024-03-25T02:32:10;3.50;99.90
19252;DHT22;9760;50.944;5.304;2024-03-25T02:34:41;3.50;99.90
19252;DHT22;9760;50.944;5.304;2024-03-25T02:37:08;3.40;99.90
19252;DHT22;9760;50.944;5.304;2024-03-25T02:39:34;3.40;99.90
19252;DHT22;9760;50.944;5.304;2024-03-25T02:42:00;3.30;99.90
19252;DHT22;9760;50.944;5.304;2024-03-25T02:44:26;3.30;99.90
19252;DHT22;9760;50.944;5.304;2024-03-25T02:46:52;3.40;99.90
19252;DHT22;9760;50.944;5.304;2024-03-25T02:49:18;3.20;99.90
19252;DHT22;9760;50.944;5.304;2024-03-25T02:51:43;3.10;99.90
19252;DHT22;9760;50.944;5.304;2024-03-25T02:54:09;3.10;99.90
19252;DHT22;9760;50.944;5.304;2024-03-25T02:56:35;3.10;99.90
19252;DHT22;9760;50.944;5.304;2024-03-25T02:59:01;3.00;99.90
19252;DHT22;9760;50.944;5.304;2024-03-25T03:01:27;2.80;99.90
19252;DHT22;9760;50.944;5.304;2024-03-25T03:03:52;2.80;99.90
19252;DHT22;9760;50.944;5.304;2024-03-25T03:06:18;2.90;99.90
19252;DHT22;9760;50.944;5.304;2024-03-25T03:08:44;3.00;99.90
19252;DHT22;9760;50.944;5.304;2024-03-25T03:11:10;3.00;99.90
19252;DHT22;9760;50.944;5.304;2024-03-25T03:13:35;3.00;99.90
19252;DHT22;9760;50.944;5.304;2024-03-25T03:16:01;3.00;99.90
19252;DHT22;9760;50.944;5.304;2024-03-25T03:18:28;3.00;99.90
19252;DHT22;9760;50.944;5.304;2024-03-25T03:20:53;3.00;99.90
19252;DHT22;9760;50.944;5.304;2024-03-25T03:23:22;2.80;99.90
19252;DHT22;9760;50.944;5.304;2024-03-25T03:25:48;2.80;99.90
19252;DHT22;9760;50.944;5.304;2024-03-25T03:28:14;2.80;99.90
19252;DHT22;9760;50.944;5.304;2024-03-25T03:30:41;2.80;99.90
19252;DHT22;9760;50.944;5.304;2024-03-25T03:33:06;2.90;99.90
19252;DHT22;9760;50.944;5.304;2024-03-25T03:35:35;2.80;99.90
19252;DHT22;9760;50.944;5.304;2024-03-25T03:38:01;2.80;99.90
19252;DHT22;9760;50.944;5.304;2024-03-25T03:40:28;2.80;99.90
19252;DHT22;9760;50.944;5.304;2024-03-25T03:42:54;2.80;99.90
19252;DHT22;9760;50.944;5.304;2024-03-25T03:45:23;2.70;99.90
19252;DHT22;9760;50.944;5.304;2024-03-25T03:47:49;2.70;99.90
19252;DHT22;9760;50.944;5.304;2024-03-25T03:50:15;2.60;99.90
19252;DHT22;9760;50.944;5.304;2024-03-25T03:52:40;2.40;99.90
19252;DHT22;9760;50.944;5.304;2024-03-25T03:55:06;2.40;99.90
19252;DHT22;9760;50.944;5.304;2024-03-25T03:57:32;2.50;99.90
19252;DHT22;9760;50.944;5.304;2024-03-25T03:59:58;2.50;99.90
19252;DHT22;9760;50.944;5.304;2024-03-25T04:02:25;2.50;99.90
19252;DHT22;9760;50.944;5.304;2024-03-25T04:04:51;2.60;99.90
19252;DHT22;9760;50.944;5.304;2024-03-25T04:07:17;2.50;99.90
19252;DHT22;9760;50.944;5.304;2024-03-25T04:09:43;2.40;99.90
19252;DHT22;9760;50.944;5.304;2024-03-25T04:12:08;2.20;99.90
19252;DHT22;9760;50.944;5.304;2024-03-25T04:14:34;2.10;99.90
19252;DHT22;9760;50.944;5.304;2024-03-25T04:17:00;2.10;99.90
19252;DHT22;9760;50.944;5.304;2024-03-25T04:19:26;2.10;99.90
19252;DHT22;9760;50.944;5.304;2024-03-25T04:21:53;2.20;99.90
19252;DHT22;9760;50.944;5.304;2024-03-25T04:24:19;2.20;99.90
19252;DHT22;9760;50.944;5.304;2024-03-25T04:26:45;2.30;99.90
19252;DHT22;9760;50.944;5.304;2024-03-25T04:29:11;2.40;99.90
19252;DHT22;9760;50.944;5.304;2024-03-25T04:31:36;2.30;99.90
19252;DHT22;9760;50.944;5.304;2024-03-25T04:34:05;2.30;99.90
19252;DHT22;9760;50.944;5.304;2024-03-25T04:36:31;2.30;99.90
19252;DHT22;9760;50.944;5.304;2024-03-25T04:38:57;2.40;99.90
19252;DHT22;9760;50.944;5.304;2024-03-25T04:41:22;2.30;99.90
19252;DHT22;9760;50.944;5.304;2024-03-25T04:43:48;2.30;99.90
19252;DHT22;9760;50.944;5.304;2024-03-25T04:46:14;2.40;99.90
19252;DHT22;9760;50.944;5.304;2024-03-25T04:48:39;2.40;99.90
19252;DHT22;9760;50.944;5.304;2024-03-25T04:51:06;2.40;99.90
19252;DHT22;9760;50.944;5.304;2024-03-25T04:53:31;2.50;99.90
19252;DHT22;9760;50.944;5.304;2024-03-25T04:55:57;2.50;99.90
19252;DHT22;9760;50.944;5.304;2024-03-25T04:58:22;2.50;99.90
19252;DHT22;9760;50.944;5.304;2024-03-25T05:00:48;2.40;99.90
19252;DHT22;9760;50.944;5.304;2024-03-25T05:03:14;2.50;99.90
19252;DHT22;9760;50.944;5.304;2024-03-25T05:05:39;2.50;99.90
19252;DHT22;9760;50.944;5.304;2024-03-25T05:08:05;2.60;99.90
19252;DHT22;9760;50.944;5.304;2024-03-25T05:10:31;2.60;99.90
19252;DHT22;9760;50.944;5.304;2024-03-25T05:12:56;2.70;99.90
19252;DHT22;9760;50.944;5.304;2024-03-25T05:15:22;2.70;99.90
19252;DHT22;9760;50.944;5.304;2024-03-25T05:17:48;2.70;99.90
19252;DHT22;9760;50.944;5.304;2024-03-25T05:20:15;2.80;99.90
19252;DHT22;9760;50.944;5.304;2024-03-25T05:22:40;2.80;99.90
19252;DHT22;9760;50.944;5.304;2024-03-25T05:25:06;2.80;99.90
19252;DHT22;9760;50.944;5.304;2024-03-25T05:27:32;2.80;99.90
19252;DHT22;9760;50.944;5.304;2024-03-25T05:29:58;2.70;99.90
19252;DHT22;9760;50.944;5.304;2024-03-25T05:32:24;2.70;99.90
19252;DHT22;9760;50.944;5.304;2024-03-25T05:34:49;2.70;99.90
19252;DHT22;9760;50.944;5.304;2024-03-25T05:37:15;2.70;99.90
19252;DHT22;9760;50.944;5.304;2024-03-25T05:39:40;2.50;99.90
19252;DHT22;9760;50.944;5.304;2024-03-25T05:42:06;2.50;99.90
19252;DHT22;9760;50.944;5.304;2024-03-25T05:44:32;2.50;99.90
19252;DHT22;9760;50.944;5.304;2024-03-25T05:46:57;2.50;99.90
19252;DHT22;9760;50.944;5.304;2024-03-25T05:49:23;2.50;99.90
19252;DHT22;9760;50.944;5.304;2024-03-25T05:51:49;2.50;99.90
19252;DHT22;9760;50.944;5.304;2024-03-25T05:54:14;2.50;99.90
19252;DHT22;9760;50.944;5.304;2024-03-25T05:56:40;2.50;99.90
19252;DHT22;9760;50.944;5.304;2024-03-25T05:59:06;2.50;99.90
19252;DHT22;9760;50.944;5.304;2024-03-25T06:01:31;2.60;99.90
19252;DHT22;9760;50.944;5.304;2024-03-25T06:03:57;2.60;99.90
19252;DHT22;9760;50.944;5.304;2024-03-25T06:06:23;2.60;99.90
19252;DHT22;9760;50.944;5.304;2024-03-25T06:08:48;2.70;99.90
19252;DHT22;9760;50.944;5.304;2024-03-25T06:11:16;2.80;99.90
19252;DHT22;9760;50.944;5.304;2024-03-25T06:13:45;2.90;99.90
19252;DHT22;9760;50.944;5.304;2024-03-25T06:16:13;3.00;99.90
19252;DHT22;9760;50.944;5.304;2024-03-25T06:18:38;3.10;99.90
19252;DHT22;9760;50.944;5.304;2024-03-25T06:21:05;3.30;99.90
19252;DHT22;9760;50.944;5.304;2024-03-25T06:23:31;3.40;99.90
19252;DHT22;9760;50.944;5.304;2024-03-25T06:25:57;3.50;99.90
19252;DHT22;9760;50.944;5.304;2024-03-25T06:28:23;3.60;99.90
19252;DHT22;9760;50.944;5.304;2024-03-25T06:30:50;3.70;99.90
19252;DHT22;9760;50.944;5.304;2024-03-25T06:33:35;3.90;99.90
19252;DHT22;9760;50.944;5.304;2024-03-25T06:36:20;4.10;99.90
19252;DHT22;9760;50.944;5.304;2024-03-25T06:38:45;4.20;99.90
19252;DHT22;9760;50.944;5.304;2024-03-25T06:41:11;4.40;99.90
19252;DHT22;9760;50.944;5.304;2024-03-25T06:43:37;4.50;99.90
19252;DHT22;9760;50.944;5.304;2024-03-25T06:46:04;4.60;99.90
19252;DHT22;9760;50.944;5.304;2024-03-25T06:48:29;4.80;99.90
19252;DHT22;9760;50.944;5.304;2024-03-25T06:50:57;4.90;99.90
19252;DHT22;9760;50.944;5.304;2024-03-25T06:53:22;5.00;99.90
19252;DHT22;9760;50.944;5.304;2024-03-25T06:55:58;5.00;99.90
19252;DHT22;9760;50.944;5.304;2024-03-25T06:58:28;5.00;99.90
19252;DHT22;9760;50.944;5.304;2024-03-25T07:00:55;5.10;99.90
19252;DHT22;9760;50.944;5.304;2024-03-25T07:03:21;5.20;99.90
19252;DHT22;9760;50.944;5.304;2024-03-25T07:05:48;5.20;99.90
19252;DHT22;9760;50.944;5.304;2024-03-25T07:08:15;5.30;99.90
19252;DHT22;9760;50.944;5.304;2024-03-25T07:10:44;5.30;99.90
19252;DHT22;9760;50.944;5.304;2024-03-25T07:13:10;5.30;99.90
19252;DHT22;9760;50.944;5.304;2024-03-25T07:15:36;5.40;99.90
19252;DHT22;9760;50.944;5.304;2024-03-25T07:18:02;5.50;99.90
19252;DHT22;9760;50.944;5.304;2024-03-25T07:20:29;5.50;99.90
19252;DHT22;9760;50.944;5.304;2024-03-25T07:22:54;5.60;99.90
19252;DHT22;9760;50.944;5.304;2024-03-25T07:25:24;5.60;99.90
19252;DHT22;9760;50.944;5.304;2024-03-25T07:27:50;5.70;99.90
19252;DHT22;9760;50.944;5.304;2024-03-25T07:30:15;5.70;99.90
19252;DHT22;9760;50.944;5.304;2024-03-25T07:32:41;5.80;99.90
19252;DHT22;9760;50.944;5.304;2024-03-25T07:35:07;5.80;99.90
19252;DHT22;9760;50.944;5.304;2024-03-25T07:37:33;5.90;99.90
19252;DHT22;9760;50.944;5.304;2024-03-25T07:39:59;5.90;99.90
19252;DHT22;9760;50.944;5.304;2024-03-25T07:42:25;6.00;99.90
19252;DHT22;9760;50.944;5.304;2024-03-25T07:44:50;6.10;99.90
19252;DHT22;9760;50.944;5.304;2024-03-25T07:47:16;6.10;99.90
19252;DHT22;9760;50.944;5.304;2024-03-25T07:49:42;6.20;99.90
19252;DHT22;9760;50.944;5.304;2024-03-25T07:52:07;6.20;99.90
19252;DHT22;9760;50.944;5.304;2024-03-25T07:54:33;6.30;99.90
19252;DHT22;9760;50.944;5.304;2024-03-25T07:56:58;6.40;99.90
19252;DHT22;9760;50.944;5.304;2024-03-25T07:59:24;6.50;99.90
19252;DHT22;9760;50.944;5.304;2024-03-25T08:01:50;6.60;99.90
19252;DHT22;9760;50.944;5.304;2024-03-25T08:04:16;6.70;99.90
19252;DHT22;9760;50.944;5.304;2024-03-25T08:06:42;6.70;99.90
19252;DHT22;9760;50.944;5.304;2024-03-25T08:09:07;6.80;99.90
19252;DHT22;9760;50.944;5.304;2024-03-25T08:11:35;6.80;99.90
19252;DHT22;9760;50.944;5.304;2024-03-25T08:14:00;6.90;99.90
19252;DHT22;9760;50.944;5.304;2024-03-25T08:16:26;7.00;99.90
19252;DHT22;9760;50.944;5.304;2024-03-25T08:18:52;7.10;99.90
19252;DHT22;9760;50.944;5.304;2024-03-25T08:21:17;7.10;99.90
19252;DHT22;9760;50.944;5.304;2024-03-25T08:23:46;7.20;99.90
19252;DHT22;9760;50.944;5.304;2024-03-25T08:26:12;7.30;99.90
19252;DHT22;9760;50.944;5.304;2024-03-25T08:28:38;7.50;99.90
19252;DHT22;9760;50.944;5.304;2024-03-25T08:31:04;7.50;99.90
19252;DHT22;9760;50.944;5.304;2024-03-25T08:33:30;7.60;99.90
19252;DHT22;9760;50.944;5.304;2024-03-25T08:35:56;7.70;99.90
19252;DHT22;9760;50.944;5.304;2024-03-25T08:38:21;7.80;99.90
19252;DHT22;9760;50.944;5.304;2024-03-25T08:40:47;7.90;99.90
19252;DHT22;9760;50.944;5.304;2024-03-25T08:43:13;8.00;99.90
19252;DHT22;9760;50.944;5.304;2024-03-25T08:45:38;8.00;99.90
19252;DHT22;9760;50.944;5.304;2024-03-25T08:48:04;7.90;99.90
19252;DHT22;9760;50.944;5.304;2024-03-25T08:50:30;8.00;99.90
19252;DHT22;9760;50.944;5.304;2024-03-25T08:52:55;8.00;99.90
19252;DHT22;9760;50.944;5.304;2024-03-25T08:55:21;8.00;99.90
19252;DHT22;9760;50.944;5.304;2024-03-25T08:57:46;8.10;99.90
19252;DHT22;9760;50.944;5.304;2024-03-25T09:00:13;8.20;99.90
19252;DHT22;9760;50.944;5.304;2024-03-25T09:02:38;8.30;99.90
19252;DHT22;9760;50.944;5.304;2024-03-25T09:05:04;8.40;99.90
19252;DHT22;9760;50.944;5.304;2024-03-25T09:07:34;8.50;99.90
19252;DHT22;9760;50.944;5.304;2024-03-25T09:09:59;8.60;99.90
19252;DHT22;9760;50.944;5.304;2024-03-25T09:12:44;8.70;99.90
19252;DHT22;9760;50.944;5.304;2024-03-25T09:15:10;8.90;99.90
19252;DHT22;9760;50.944;5.304;2024-03-25T09:17:36;9.00;99.90
19252;DHT22;9760;50.944;5.304;2024-03-25T09:20:02;9.00;99.90
19252;DHT22;9760;50.944;5.304;2024-03-25T09:22:45;9.00;99.90
19252;DHT22;9760;50.944;5.304;2024-03-25T09:25:12;9.10;99.90
19252;DHT22;9760;50.944;5.304;2024-03-25T09:27:39;9.30;99.90
19252;DHT22;9760;50.944;5.304;2024-03-25T09:30:05;9.50;99.90
19252;DHT22;9760;50.944;5.304;2024-03-25T09:32:33;9.60;99.90
19252;DHT22;9760;50.944;5.304;2024-03-25T09:34:58;9.80;99.90
19252;DHT22;9760;50.944;5.304;2024-03-25T09:37:24;9.80;99.90
19252;DHT22;9760;50.944;5.304;2024-03-25T09:39:50;9.90;99.90
19252;DHT22;9760;50.944;5.304;2024-03-25T09:42:32;9.90;99.90
19252;DHT22;9760;50.944;5.304;2024-03-25T09:44:59;9.90;99.90
19252;DHT22;9760;50.944;5.304;2024-03-25T09:47:25;10.00;99.90
19252;DHT22;9760;50.944;5.304;2024-03-25T09:49:51;10.00;99.90
19252;DHT22;9760;50.944;5.304;2024-03-25T09:52:19;10.20;99.90
19252;DHT22;9760;50.944;5.304;2024-03-25T09:54:45;10.40;99.90
19252;DHT22;9760;50.944;5.304;2024-03-25T09:57:11;10.60;99.90
19252;DHT22;9760;50.944;5.304;2024-03-25T09:59:37;10.60;99.90
19252;DHT22;9760;50.944;5.304;2024-03-25T10:02:03;10.70;99.90
19252;DHT22;9760;50.944;5.304;2024-03-25T10:04:30;10.80;99.90
19252;DHT22;9760;50.944;5.304;2024-03-25T10:06:56;10.90;99.90
19252;DHT22;9760;50.944;5.304;2024-03-25T10:09:22;10.80;99.90
19252;DHT22;9760;50.944;5.304;2024-03-25T10:11:51;10.90;99.90
19252;DHT22;9760;50.944;5.304;2024-03-25T10:14:17;11.00;99.90
19252;DHT22;9760;50.944;5.304;2024-03-25T10:16:43;11.00;99.90
19252;DHT22;9760;50.944;5.304;2024-03-25T10:19:09;11.00;99.90
19252;DHT22;9760;50.944;5.304;2024-03-25T10:21:35;11.10;99.90
19252;DHT22;9760;50.944;5.304;2024-03-25T10:24:01;11.20;99.90
19252;DHT22;9760;50.944;5.304;2024-03-25T10:26:32;11.20;99.90
19252;DHT22;9760;50.944;5.304;2024-03-25T10:28:59;11.40;99.90
19252;DHT22;9760;50.944;5.304;2024-03-25T10:31:25;11.40;99.90
19252;DHT22;9760;50.944;5.304;2024-03-25T10:33:51;12.00;99.90
19252;DHT22;9760;50.944;5.304;2024-03-25T10:36:17;12.80;99.90
19252;DHT22;9760;50.944;5.304;2024-03-25T10:38:44;13.80;99.90
19252;DHT22;9760;50.944;5.304;2024-03-25T10:41:12;14.10;99.90
19252;DHT22;9760;50.944;5.304;2024-03-25T10:43:40;14.30;99.90
19252;DHT22;9760;50.944;5.304;2024-03-25T10:46:06;14.10;99.90
19252;DHT22;9760;50.944;5.304;2024-03-25T10:48:35;14.30;99.90
19252;DHT22;9760;50.944;5.304;2024-03-25T10:51:03;14.50;99.90
19252;DHT22;9760;50.944;5.304;2024-03-25T10:53:32;14.80;99.90
19252;DHT22;9760;50.944;5.304;2024-03-25T10:56:00;15.00;99.90
19252;DHT22;9760;50.944;5.304;2024-03-25T10:58:27;15.30;99.90
19252;DHT22;9760;50.944;5.304;2024-03-25T11:00:53;15.50;99.90
19252;DHT22;9760;50.944;5.304;2024-03-25T11:03:22;15.60;99.90
19252;DHT22;9760;50.944;5.304;2024-03-25T11:05:48;15.20;99.90
19252;DHT22;9760;50.944;5.304;2024-03-25T11:08:16;15.00;99.90
19252;DHT22;9760;50.944;5.304;2024-03-25T11:10:45;15.20;99.90
19252;DHT22;9760;50.944;5.304;2024-03-25T11:13:17;16.20;99.90
19252;DHT22;9760;50.944;5.304;2024-03-25T11:15:45;16.50;99.90
19252;DHT22;9760;50.944;5.304;2024-03-25T11:18:15;16.70;99.90
19252;DHT22;9760;50.944;5.304;2024-03-25T11:20:41;16.80;99.90
19252;DHT22;9760;50.944;5.304;2024-03-25T11:23:11;16.70;99.90
19252;DHT22;9760;50.944;5.304;2024-03-25T11:25:38;16.10;99.90
19252;DHT22;9760;50.944;5.304;2024-03-25T11:28:05;15.20;99.90
19252;DHT22;9760;50.944;5.304;2024-03-25T11:30:31;14.00;99.90
19252;DHT22;9760;50.944;5.304;2024-03-25T11:32:58;13.70;99.90
19252;DHT22;9760;50.944;5.304;2024-03-25T11:35:24;13.50;99.90
19252;DHT22;9760;50.944;5.304;2024-03-25T11:37:50;13.20;99.90
19252;DHT22;9760;50.944;5.304;2024-03-25T11:40:17;13.10;99.90
19252;DHT22;9760;50.944;5.304;2024-03-25T11:42:44;13.00;99.90
19252;DHT22;9760;50.944;5.304;2024-03-25T11:45:18;12.90;99.90
19252;DHT22;9760;50.944;5.304;2024-03-25T11:47:45;13.00;99.90
19252;DHT22;9760;50.944;5.304;2024-03-25T11:50:13;12.80;99.90
19252;DHT22;9760;50.944;5.304;2024-03-25T11:52:39;12.80;99.90
19252;DHT22;9760;50.944;5.304;2024-03-25T11:55:05;12.90;99.90
19252;DHT22;9760;50.944;5.304;2024-03-25T11:57:31;13.00;99.90
19252;DHT22;9760;50.944;5.304;2024-03-25T11:59:59;13.30;99.90
19252;DHT22;9760;50.944;5.304;2024-03-25T12:02:25;13.10;99.90
19252;DHT22;9760;50.944;5.304;2024-03-25T12:04:51;13.00;99.90
19252;DHT22;9760;50.944;5.304;2024-03-25T12:07:17;12.90;99.90
19252;DHT22;9760;50.944;5.304;2024-03-25T12:09:43;12.90;99.90
19252;DHT22;9760;50.944;5.304;2024-03-25T12:12:38;12.80;99.90
19252;DHT22;9760;50.944;5.304;2024-03-25T12:15:09;12.70;99.90
19252;DHT22;9760;50.944;5.304;2024-03-25T12:17:34;12.60;99.90
19252;DHT22;9760;50.944;5.304;2024-03-25T12:20:04;12.50;99.90
19252;DHT22;9760;50.944;5.304;2024-03-25T12:22:32;12.50;99.90
19252;DHT22;9760;50.944;5.304;2024-03-25T12:25:01;12.70;99.90
19252;DHT22;9760;50.944;5.304;2024-03-25T12:27:29;12.70;99.90
19252;DHT22;9760;50.944;5.304;2024-03-25T12:30:02;12.80;99.90
19252;DHT22;9760;50.944;5.304;2024-03-25T12:32:38;13.00;99.90
19252;DHT22;9760;50.944;5.304;2024-03-25T12:35:12;13.30;99.90
19252;DHT22;9760;50.944;5.304;2024-03-25T12:37:39;13.30;99.90
19252;DHT22;9760;50.944;5.304;2024-03-25T12:40:06;13.10;99.90
19252;DHT22;9760;50.944;5.304;2024-03-25T12:42:34;13.00;99.90
19252;DHT22;9760;50.944;5.304;2024-03-25T12:44:59;13.00;99.90
19252;DHT22;9760;50.944;5.304;2024-03-25T12:47:25;13.00;99.90
19252;DHT22;9760;50.944;5.304;2024-03-25T12:49:51;13.00;99.90
19252;DHT22;9760;50.944;5.304;2024-03-25T12:52:16;13.00;99.90
19252;DHT22;9760;50.944;5.304;2024-03-25T12:54:42;13.00;99.90
19252;DHT22;9760;50.944;5.304;2024-03-25T12:57:08;13.00;99.90
19252;DHT22;9760;50.944;5.304;2024-03-25T12:59:35;13.20;99.90
19252;DHT22;9760;50.944;5.304;2024-03-25T13:02:00;13.20;99.90
19252;DHT22;9760;50.944;5.304;2024-03-25T13:04:26;13.30;99.90
19252;DHT22;9760;50.944;5.304;2024-03-25T13:06:52;13.30;99.90
19252;DHT22;9760;50.944;5.304;2024-03-25T13:09:18;13.00;99.90
19252;DHT22;9760;50.944;5.304;2024-03-25T13:11:44;13.20;99.90
19252;DHT22;9760;50.944;5.304;2024-03-25T13:14:12;13.30;99.90
19252;DHT22;9760;50.944;5.304;2024-03-25T13:16:38;13.30;99.90
19252;DHT22;9760;50.944;5.304;2024-03-25T13:19:04;13.40;99.90
19252;DHT22;9760;50.944;5.304;2024-03-25T13:21:30;13.50;99.90
19252;DHT22;9760;50.944;5.304;2024-03-25T13:23:55;13.50;99.90
19252;DHT22;9760;50.944;5.304;2024-03-25T13:26:21;13.60;99.90
19252;DHT22;9760;50.944;5.304;2024-03-25T13:28:47;13.50;99.90
19252;DHT22;9760;50.944;5.304;2024-03-25T13:31:13;13.50;99.90
19252;DHT22;9760;50.944;5.304;2024-03-25T13:33:39;13.60;99.90
19252;DHT22;9760;50.944;5.304;2024-03-25T13:36:06;13.50;99.90
19252;DHT22;9760;50.944;5.304;2024-03-25T13:38:32;13.50;99.90
19252;DHT22;9760;50.944;5.304;2024-03-25T13:40:59;13.50;99.90
19252;DHT22;9760;50.944;5.304;2024-03-25T13:43:25;13.50;99.90
19252;DHT22;9760;50.944;5.304;2024-03-25T13:45:51;13.40;99.90
19252;DHT22;9760;50.944;5.304;2024-03-25T13:48:16;13.30;99.90
19252;DHT22;9760;50.944;5.304;2024-03-25T13:50:42;13.10;99.90
19252;DHT22;9760;50.944;5.304;2024-03-25T13:53:09;12.90;99.90
19252;DHT22;9760;50.944;5.304;2024-03-25T13:55:35;12.90;99.90
19252;DHT22;9760;50.944;5.304;2024-03-25T13:58:01;13.00;99.90
19252;DHT22;9760;50.944;5.304;2024-03-25T14:00:26;13.10;99.90
19252;DHT22;9760;50.944;5.304;2024-03-25T14:02:54;13.10;99.90
19252;DHT22;9760;50.944;5.304;2024-03-25T14:05:21;13.20;99.90
19252;DHT22;9760;50.944;5.304;2024-03-25T14:07:46;13.50;99.90
19252;DHT22;9760;50.944;5.304;2024-03-25T14:10:12;13.50;99.90
19252;DHT22;9760;50.944;5.304;2024-03-25T14:12:38;13.30;99.90
19252;DHT22;9760;50.944;5.304;2024-03-25T14:15:04;13.30;99.90
19252;DHT22;9760;50.944;5.304;2024-03-25T14:17:30;13.30;99.90
19252;DHT22;9760;50.944;5.304;2024-03-25T14:19:56;13.60;99.90
19252;DHT22;9760;50.944;5.304;2024-03-25T14:22:22;13.70;99.90
19252;DHT22;9760;50.944;5.304;2024-03-25T14:24:48;13.60;99.90
19252;DHT22;9760;50.944;5.304;2024-03-25T14:27:14;13.70;99.90
19252;DHT22;9760;50.944;5.304;2024-03-25T14:29:40;13.70;99.90
19252;DHT22;9760;50.944;5.304;2024-03-25T14:32:07;13.70;99.90
19252;DHT22;9760;50.944;5.304;2024-03-25T14:34:33;13.80;99.90
19252;DHT22;9760;50.944;5.304;2024-03-25T14:36:59;13.80;99.90
19252;DHT22;9760;50.944;5.304;2024-03-25T14:39:27;13.60;99.90
19252;DHT22;9760;50.944;5.304;2024-03-25T14:41:53;13.50;99.90
19252;DHT22;9760;50.944;5.304;2024-03-25T14:44:18;13.30;99.90
19252;DHT22;9760;50.944;5.304;2024-03-25T14:46:44;13.10;99.90
19252;DHT22;9760;50.944;5.304;2024-03-25T14:49:09;13.20;99.90
19252;DHT22;9760;50.944;5.304;2024-03-25T14:51:35;13.10;99.90
19252;DHT22;9760;50.944;5.304;2024-03-25T14:54:01;13.10;99.90
19252;DHT22;9760;50.944;5.304;2024-03-25T14:56:28;13.00;99.90
19252;DHT22;9760;50.944;5.304;2024-03-25T14:58:54;13.10;99.90
19252;DHT22;9760;50.944;5.304;2024-03-25T15:01:20;13.40;99.90
19252;DHT22;9760;50.944;5.304;2024-03-25T15:03:46;13.30;99.90
19252;DHT22;9760;50.944;5.304;2024-03-25T15:06:13;13.20;99.90
19252;DHT22;9760;50.944;5.304;2024-03-25T15:08:39;13.30;99.90
19252;DHT22;9760;50.944;5.304;2024-03-25T15:11:05;13.30;99.90
19252;DHT22;9760;50.944;5.304;2024-03-25T15:13:31;13.20;99.90
19252;DHT22;9760;50.944;5.304;2024-03-25T15:15:57;13.20;99.90
19252;DHT22;9760;50.944;5.304;2024-03-25T15:18:23;13.30;99.90
19252;DHT22;9760;50.944;5.304;2024-03-25T15:21:02;13.40;99.90
19252;DHT22;9760;50.944;5.304;2024-03-25T15:23:28;13.40;99.90
19252;DHT22;9760;50.944;5.304;2024-03-25T15:25:54;13.40;99.90
19252;DHT22;9760;50.944;5.304;2024-03-25T15:28:20;13.30;99.90
19252;DHT22;9760;50.944;5.304;2024-03-25T15:30:46;13.20;99.90
19252;DHT22;9760;50.944;5.304;2024-03-25T15:33:15;13.20;99.90
19252;DHT22;9760;50.944;5.304;2024-03-25T15:35:41;13.20;99.90
19252;DHT22;9760;50.944;5.304;2024-03-25T15:38:07;13.10;99.90
19252;DHT22;9760;50.944;5.304;2024-03-25T15:40:34;12.90;99.90
19252;DHT22;9760;50.944;5.304;2024-03-25T15:43:01;13.00;99.90
19252;DHT22;9760;50.944;5.304;2024-03-25T15:45:29;13.10;99.90
19252;DHT22;9760;50.944;5.304;2024-03-25T15:47:55;13.00;99.90
19252;DHT22;9760;50.944;5.304;2024-03-25T15:50:21;12.90;99.90